Terminal Aerodrome Forecast
Issued by NWS

Home | Current Version | Previous Version | Text Only | Print | Product List | Glossary On
Versions: 1 2 3 4 5 6 7 8 9 10 11 12
800
FTUS42 TJSJ 231720
TAFJSJ
TAF
TJSJ 231720Z 2318/2418 05007KT P6SM SCT030 SCT050
     FM231930 08011KT P6SM VCSH SCT025 BKN050
     FM232330 10006KT P6SM FEW030 SCT060
     FM240400 13003KT P6SM VCSH SCT025 SCT040
     FM241400 07009KT P6SM SCT030 SCT060=

USA.gov is the U.S. government's official web portal to all federal, state and local government web resources and services.